sensor_id;sensor_type;location;lat;lon;timestamp;P1;durP1;ratioP1;P2;durP2;ratioP2
75898;SDS011;64576;50.460;4.866;2023-10-19T00:01:06;1999.90;;;999.90;;
75898;SDS011;64576;50.460;4.866;2023-10-19T00:03:35;1999.90;;;999.90;;
75898;SDS011;64576;50.460;4.866;2023-10-19T00:06:01;1999.90;;;999.90;;
75898;SDS011;64576;50.460;4.866;2023-10-19T00:08:26;1007.33;;;503.13;;
75898;SDS011;64576;50.460;4.866;2023-10-19T00:11:01;1999.90;;;999.90;;
75898;SDS011;64576;50.460;4.866;2023-10-19T00:13:33;1999.90;;;999.90;;
75898;SDS011;64576;50.460;4.866;2023-10-19T00:16:08;1999.90;;;999.90;;
75898;SDS011;64576;50.460;4.866;2023-10-19T00:18:46;1999.90;;;999.90;;
75898;SDS011;64576;50.460;4.866;2023-10-19T00:21:13;1999.90;;;999.90;;
75898;SDS011;64576;50.460;4.866;2023-10-19T00:23:53;1999.90;;;999.90;;
75898;SDS011;64576;50.460;4.866;2023-10-19T00:26:23;1999.90;;;999.90;;
75898;SDS011;64576;50.460;4.866;2023-10-19T00:28:54;1999.90;;;999.90;;
75898;SDS011;64576;50.460;4.866;2023-10-19T00:31:25;1999.90;;;999.90;;
75898;SDS011;64576;50.460;4.866;2023-10-19T00:33:58;1999.90;;;999.90;;
75898;SDS011;64576;50.460;4.866;2023-10-19T00:36:26;1999.90;;;999.90;;
75898;SDS011;64576;50.460;4.866;2023-10-19T00:38:51;1999.90;;;999.90;;
75898;SDS011;64576;50.460;4.866;2023-10-19T00:41:26;1999.90;;;999.90;;
75898;SDS011;64576;50.460;4.866;2023-10-19T00:43:55;1999.90;;;999.90;;
75898;SDS011;64576;50.460;4.866;2023-10-19T00:46:36;1999.90;;;999.90;;
75898;SDS011;64576;50.460;4.866;2023-10-19T00:49:11;1999.90;;;999.90;;
75898;SDS011;64576;50.460;4.866;2023-10-19T00:51:40;1999.90;;;999.90;;
75898;SDS011;64576;50.460;4.866;2023-10-19T00:54:36;1999.90;;;999.90;;
75898;SDS011;64576;50.460;4.866;2023-10-19T00:57:17;1999.90;;;999.90;;
75898;SDS011;64576;50.460;4.866;2023-10-19T00:59:48;1999.90;;;999.90;;
75898;SDS011;64576;50.460;4.866;2023-10-19T01:02:16;1999.90;;;999.90;;
75898;SDS011;64576;50.460;4.866;2023-10-19T01:05:02;1999.90;;;999.90;;
75898;SDS011;64576;50.460;4.866;2023-10-19T01:07:31;1999.90;;;999.90;;
75898;SDS011;64576;50.460;4.866;2023-10-19T01:10:03;1999.90;;;999.90;;
75898;SDS011;64576;50.460;4.866;2023-10-19T01:12:30;1999.90;;;999.90;;
75898;SDS011;64576;50.460;4.866;2023-10-19T01:15:15;1999.90;;;999.90;;
75898;SDS011;64576;50.460;4.866;2023-10-19T01:17:47;1999.90;;;999.90;;
75898;SDS011;64576;50.460;4.866;2023-10-19T01:20:31;1999.90;;;999.90;;
75898;SDS011;64576;50.460;4.866;2023-10-19T01:23:01;1999.90;;;999.90;;
75898;SDS011;64576;50.460;4.866;2023-10-19T01:31:19;1999.90;;;999.90;;
75898;SDS011;64576;50.460;4.866;2023-10-19T01:33:55;1999.90;;;999.90;;
75898;SDS011;64576;50.460;4.866;2023-10-19T01:36:26;1999.90;;;999.90;;
75898;SDS011;64576;50.460;4.866;2023-10-19T01:38:53;1999.90;;;999.90;;
75898;SDS011;64576;50.460;4.866;2023-10-19T01:41:20;1999.90;;;999.90;;
75898;SDS011;64576;50.460;4.866;2023-10-19T01:43:48;1999.90;;;999.90;;
75898;SDS011;64576;50.460;4.866;2023-10-19T01:46:16;1999.90;;;999.90;;
75898;SDS011;64576;50.460;4.866;2023-10-19T01:48:50;1999.90;;;999.90;;
75898;SDS011;64576;50.460;4.866;2023-10-19T01:51:20;1999.90;;;999.90;;
75898;SDS011;64576;50.460;4.866;2023-10-19T01:53:48;1999.90;;;999.90;;
75898;SDS011;64576;50.460;4.866;2023-10-19T01:56:15;1999.90;;;999.90;;
75898;SDS011;64576;50.460;4.866;2023-10-19T01:58:45;1999.90;;;999.90;;
75898;SDS011;64576;50.460;4.866;2023-10-19T02:01:14;1999.90;;;999.90;;
75898;SDS011;64576;50.460;4.866;2023-10-19T02:03:53;1999.90;;;999.90;;
75898;SDS011;64576;50.460;4.866;2023-10-19T02:06:29;1999.90;;;999.90;;
75898;SDS011;64576;50.460;4.866;2023-10-19T02:09:01;1999.90;;;999.90;;
75898;SDS011;64576;50.460;4.866;2023-10-19T02:11:47;1999.90;;;999.90;;
75898;SDS011;64576;50.460;4.866;2023-10-19T02:14:14;1999.90;;;999.90;;
75898;SDS011;64576;50.460;4.866;2023-10-19T02:16:44;1999.90;;;999.90;;
75898;SDS011;64576;50.460;4.866;2023-10-19T02:19:18;1999.90;;;999.90;;
75898;SDS011;64576;50.460;4.866;2023-10-19T02:21:51;1999.90;;;999.90;;
75898;SDS011;64576;50.460;4.866;2023-10-19T02:24:37;1999.90;;;999.90;;
75898;SDS011;64576;50.460;4.866;2023-10-19T02:27:04;1999.90;;;999.90;;
75898;SDS011;64576;50.460;4.866;2023-10-19T02:29:29;1999.90;;;999.90;;
75898;SDS011;64576;50.460;4.866;2023-10-19T02:31:56;1999.90;;;999.90;;
75898;SDS011;64576;50.460;4.866;2023-10-19T02:34:21;1999.90;;;999.90;;
75898;SDS011;64576;50.460;4.866;2023-10-19T02:36:48;1999.90;;;999.90;;
75898;SDS011;64576;50.460;4.866;2023-10-19T02:39:13;1999.90;;;999.90;;
75898;SDS011;64576;50.460;4.866;2023-10-19T02:41:40;1999.90;;;999.90;;
75898;SDS011;64576;50.460;4.866;2023-10-19T02:44:09;1999.90;;;999.90;;
75898;SDS011;64576;50.460;4.866;2023-10-19T02:46:42;1999.90;;;999.90;;
75898;SDS011;64576;50.460;4.866;2023-10-19T02:49:08;1999.90;;;999.90;;
75898;SDS011;64576;50.460;4.866;2023-10-19T02:51:41;1999.90;;;999.90;;
75898;SDS011;64576;50.460;4.866;2023-10-19T02:56:47;1999.90;;;999.90;;
75898;SDS011;64576;50.460;4.866;2023-10-19T02:59:18;1999.90;;;999.90;;
75898;SDS011;64576;50.460;4.866;2023-10-19T03:01:58;1999.90;;;999.90;;
75898;SDS011;64576;50.460;4.866;2023-10-19T03:04:32;1999.90;;;999.90;;
75898;SDS011;64576;50.460;4.866;2023-10-19T03:07:00;1999.90;;;999.90;;
75898;SDS011;64576;50.460;4.866;2023-10-19T03:09:27;1999.90;;;999.90;;
75898;SDS011;64576;50.460;4.866;2023-10-19T03:11:53;1999.90;;;999.90;;
75898;SDS011;64576;50.460;4.866;2023-10-19T03:14:20;1999.90;;;999.90;;
75898;SDS011;64576;50.460;4.866;2023-10-19T03:16:50;1999.90;;;999.90;;
75898;SDS011;64576;50.460;4.866;2023-10-19T03:19:15;1999.90;;;999.90;;
75898;SDS011;64576;50.460;4.866;2023-10-19T03:21:41;1999.90;;;999.90;;
75898;SDS011;64576;50.460;4.866;2023-10-19T03:24:09;1999.90;;;999.90;;
75898;SDS011;64576;50.460;4.866;2023-10-19T03:26:40;1999.90;;;999.90;;
75898;SDS011;64576;50.460;4.866;2023-10-19T03:31:39;1999.90;;;999.90;;
75898;SDS011;64576;50.460;4.866;2023-10-19T03:34:12;1999.90;;;999.90;;
75898;SDS011;64576;50.460;4.866;2023-10-19T03:36:38;1999.90;;;999.90;;
75898;SDS011;64576;50.460;4.866;2023-10-19T03:39:05;1999.90;;;999.90;;
75898;SDS011;64576;50.460;4.866;2023-10-19T03:41:38;1999.90;;;999.90;;
75898;SDS011;64576;50.460;4.866;2023-10-19T03:44:10;1999.90;;;999.90;;
75898;SDS011;64576;50.460;4.866;2023-10-19T03:46:44;1999.90;;;999.90;;
75898;SDS011;64576;50.460;4.866;2023-10-19T03:49:21;1999.90;;;999.90;;
75898;SDS011;64576;50.460;4.866;2023-10-19T03:51:47;1999.90;;;999.90;;
75898;SDS011;64576;50.460;4.866;2023-10-19T03:54:48;1999.90;;;999.90;;
75898;SDS011;64576;50.460;4.866;2023-10-19T03:57:15;1999.90;;;999.90;;
75898;SDS011;64576;50.460;4.866;2023-10-19T03:59:50;1999.90;;;999.90;;
75898;SDS011;64576;50.460;4.866;2023-10-19T04:02:22;1999.90;;;999.90;;
75898;SDS011;64576;50.460;4.866;2023-10-19T04:04:53;1999.90;;;999.90;;
75898;SDS011;64576;50.460;4.866;2023-10-19T04:07:20;1999.90;;;999.90;;
75898;SDS011;64576;50.460;4.866;2023-10-19T04:09:49;1999.90;;;999.90;;
75898;SDS011;64576;50.460;4.866;2023-10-19T04:12:31;1999.90;;;999.90;;
75898;SDS011;64576;50.460;4.866;2023-10-19T04:14:58;1999.90;;;999.90;;
75898;SDS011;64576;50.460;4.866;2023-10-19T04:17:35;1999.90;;;999.90;;
75898;SDS011;64576;50.460;4.866;2023-10-19T04:20:01;1999.90;;;999.90;;
75898;SDS011;64576;50.460;4.866;2023-10-19T04:22:46;1999.90;;;999.90;;
75898;SDS011;64576;50.460;4.866;2023-10-19T04:25:16;1999.90;;;999.90;;
75898;SDS011;64576;50.460;4.866;2023-10-19T04:27:44;1999.90;;;999.90;;
75898;SDS011;64576;50.460;4.866;2023-10-19T04:30:11;1999.90;;;999.90;;
75898;SDS011;64576;50.460;4.866;2023-10-19T04:32:52;1999.90;;;999.90;;
75898;SDS011;64576;50.460;4.866;2023-10-19T04:35:18;1999.90;;;999.90;;
75898;SDS011;64576;50.460;4.866;2023-10-19T04:37:48;1999.90;;;999.90;;
75898;SDS011;64576;50.460;4.866;2023-10-19T04:40:15;1999.90;;;999.90;;
75898;SDS011;64576;50.460;4.866;2023-10-19T04:42:40;1999.90;;;999.90;;
75898;SDS011;64576;50.460;4.866;2023-10-19T04:45:06;1999.90;;;999.90;;
75898;SDS011;64576;50.460;4.866;2023-10-19T04:47:33;1999.90;;;999.90;;
75898;SDS011;64576;50.460;4.866;2023-10-19T04:50:01;1999.90;;;999.90;;
75898;SDS011;64576;50.460;4.866;2023-10-19T04:52:26;1999.90;;;999.90;;
75898;SDS011;64576;50.460;4.866;2023-10-19T04:54:52;1999.90;;;999.90;;
75898;SDS011;64576;50.460;4.866;2023-10-19T04:57:19;1999.90;;;999.90;;
75898;SDS011;64576;50.460;4.866;2023-10-19T04:59:45;1999.90;;;999.90;;
75898;SDS011;64576;50.460;4.866;2023-10-19T05:02:11;1999.90;;;999.90;;
75898;SDS011;64576;50.460;4.866;2023-10-19T05:04:36;1999.90;;;999.90;;
75898;SDS011;64576;50.460;4.866;2023-10-19T05:07:02;1999.90;;;999.90;;
75898;SDS011;64576;50.460;4.866;2023-10-19T05:09:29;1999.90;;;999.90;;
75898;SDS011;64576;50.460;4.866;2023-10-19T05:11:54;1999.90;;;999.90;;
75898;SDS011;64576;50.460;4.866;2023-10-19T05:14:20;1999.90;;;999.90;;
75898;SDS011;64576;50.460;4.866;2023-10-19T05:16:45;1999.90;;;999.90;;
75898;SDS011;64576;50.460;4.866;2023-10-19T05:19:11;1999.90;;;999.90;;
75898;SDS011;64576;50.460;4.866;2023-10-19T05:21:36;1999.90;;;999.90;;
75898;SDS011;64576;50.460;4.866;2023-10-19T05:24:02;1999.90;;;999.90;;
75898;SDS011;64576;50.460;4.866;2023-10-19T05:26:27;1999.90;;;999.90;;
75898;SDS011;64576;50.460;4.866;2023-10-19T05:28:53;1999.90;;;999.90;;
75898;SDS011;64576;50.460;4.866;2023-10-19T05:31:19;1999.90;;;999.90;;
75898;SDS011;64576;50.460;4.866;2023-10-19T05:33:45;1999.90;;;999.90;;
75898;SDS011;64576;50.460;4.866;2023-10-19T05:36:13;1999.90;;;999.90;;
75898;SDS011;64576;50.460;4.866;2023-10-19T05:38:39;1999.90;;;999.90;;
75898;SDS011;64576;50.460;4.866;2023-10-19T05:41:05;1999.90;;;999.90;;
75898;SDS011;64576;50.460;4.866;2023-10-19T05:43:31;1999.90;;;999.90;;
75898;SDS011;64576;50.460;4.866;2023-10-19T05:45:56;1999.90;;;999.90;;
75898;SDS011;64576;50.460;4.866;2023-10-19T05:48:22;1999.90;;;999.90;;
75898;SDS011;64576;50.460;4.866;2023-10-19T05:50:49;1999.90;;;999.90;;
75898;SDS011;64576;50.460;4.866;2023-10-19T05:53:14;1999.90;;;999.90;;
75898;SDS011;64576;50.460;4.866;2023-10-19T05:55:43;1999.90;;;999.90;;
75898;SDS011;64576;50.460;4.866;2023-10-19T05:58:09;1999.90;;;999.90;;
75898;SDS011;64576;50.460;4.866;2023-10-19T06:00:35;1999.90;;;999.90;;
75898;SDS011;64576;50.460;4.866;2023-10-19T06:03:00;1999.90;;;999.90;;
75898;SDS011;64576;50.460;4.866;2023-10-19T06:05:26;1999.90;;;999.90;;
75898;SDS011;64576;50.460;4.866;2023-10-19T06:07:51;1999.90;;;999.90;;
75898;SDS011;64576;50.460;4.866;2023-10-19T06:10:18;1999.90;;;999.90;;
75898;SDS011;64576;50.460;4.866;2023-10-19T06:12:46;1999.90;;;999.90;;
75898;SDS011;64576;50.460;4.866;2023-10-19T06:15:13;1999.90;;;999.90;;
75898;SDS011;64576;50.460;4.866;2023-10-19T06:17:41;1999.90;;;999.90;;
75898;SDS011;64576;50.460;4.866;2023-10-19T06:20:09;1999.90;;;999.90;;
75898;SDS011;64576;50.460;4.866;2023-10-19T06:22:54;1999.90;;;999.90;;
75898;SDS011;64576;50.460;4.866;2023-10-19T06:25:21;1999.90;;;999.90;;
75898;SDS011;64576;50.460;4.866;2023-10-19T06:27:48;1999.90;;;999.90;;
75898;SDS011;64576;50.460;4.866;2023-10-19T06:30:14;1999.90;;;999.90;;
75898;SDS011;64576;50.460;4.866;2023-10-19T06:32:47;1999.90;;;999.90;;
75898;SDS011;64576;50.460;4.866;2023-10-19T06:35:15;1999.90;;;999.90;;
75898;SDS011;64576;50.460;4.866;2023-10-19T06:37:42;1999.90;;;999.90;;
75898;SDS011;64576;50.460;4.866;2023-10-19T06:40:07;1999.90;;;999.90;;
75898;SDS011;64576;50.460;4.866;2023-10-19T06:42:33;1999.90;;;999.90;;
75898;SDS011;64576;50.460;4.866;2023-10-19T06:45:00;1999.90;;;999.90;;
75898;SDS011;64576;50.460;4.866;2023-10-19T06:47:26;1999.90;;;999.90;;
75898;SDS011;64576;50.460;4.866;2023-10-19T06:49:53;1999.90;;;999.90;;
75898;SDS011;64576;50.460;4.866;2023-10-19T06:52:19;1999.90;;;999.90;;
75898;SDS011;64576;50.460;4.866;2023-10-19T06:54:44;1999.90;;;999.90;;
75898;SDS011;64576;50.460;4.866;2023-10-19T06:57:09;1999.90;;;999.90;;
75898;SDS011;64576;50.460;4.866;2023-10-19T06:59:35;1999.90;;;999.90;;
75898;SDS011;64576;50.460;4.866;2023-10-19T07:02:01;1999.90;;;999.90;;
75898;SDS011;64576;50.460;4.866;2023-10-19T07:04:30;1999.90;;;999.90;;
75898;SDS011;64576;50.460;4.866;2023-10-19T07:06:56;1999.90;;;999.90;;
75898;SDS011;64576;50.460;4.866;2023-10-19T07:09:22;1999.90;;;999.90;;
75898;SDS011;64576;50.460;4.866;2023-10-19T07:11:48;1999.90;;;999.90;;
75898;SDS011;64576;50.460;4.866;2023-10-19T07:14:18;1009.80;;;503.10;;
75898;SDS011;64576;50.460;4.866;2023-10-19T07:16:43;1999.90;;;999.90;;
75898;SDS011;64576;50.460;4.866;2023-10-19T07:19:09;1999.90;;;999.90;;
75898;SDS011;64576;50.460;4.866;2023-10-19T07:21:35;1999.90;;;999.90;;
75898;SDS011;64576;50.460;4.866;2023-10-19T07:24:02;1999.90;;;999.90;;
75898;SDS011;64576;50.460;4.866;2023-10-19T07:26:31;1999.90;;;999.90;;
75898;SDS011;64576;50.460;4.866;2023-10-19T07:28:58;1999.90;;;999.90;;
75898;SDS011;64576;50.460;4.866;2023-10-19T07:31:24;1999.90;;;999.90;;
75898;SDS011;64576;50.460;4.866;2023-10-19T07:33:52;1999.90;;;999.90;;
75898;SDS011;64576;50.460;4.866;2023-10-19T07:36:20;1999.90;;;999.90;;
75898;SDS011;64576;50.460;4.866;2023-10-19T07:38:46;1999.90;;;999.90;;
75898;SDS011;64576;50.460;4.866;2023-10-19T07:41:12;1999.90;;;999.90;;
75898;SDS011;64576;50.460;4.866;2023-10-19T07:43:38;1999.90;;;999.90;;
75898;SDS011;64576;50.460;4.866;2023-10-19T07:46:04;1999.90;;;999.90;;
75898;SDS011;64576;50.460;4.866;2023-10-19T07:48:29;1999.90;;;999.90;;
75898;SDS011;64576;50.460;4.866;2023-10-19T07:50:54;1999.90;;;999.90;;
75898;SDS011;64576;50.460;4.866;2023-10-19T07:53:20;1999.90;;;999.90;;
75898;SDS011;64576;50.460;4.866;2023-10-19T07:55:46;1999.90;;;999.90;;
75898;SDS011;64576;50.460;4.866;2023-10-19T07:58:12;1999.90;;;999.90;;
75898;SDS011;64576;50.460;4.866;2023-10-19T08:00:37;1999.90;;;999.90;;
75898;SDS011;64576;50.460;4.866;2023-10-19T08:03:03;1999.90;;;999.90;;
75898;SDS011;64576;50.460;4.866;2023-10-19T08:05:30;1999.90;;;999.90;;
75898;SDS011;64576;50.460;4.866;2023-10-19T08:07:57;1999.90;;;999.90;;
75898;SDS011;64576;50.460;4.866;2023-10-19T08:10:24;1999.90;;;999.90;;
75898;SDS011;64576;50.460;4.866;2023-10-19T08:12:51;1999.90;;;999.90;;
75898;SDS011;64576;50.460;4.866;2023-10-19T08:15:17;1999.90;;;999.90;;
75898;SDS011;64576;50.460;4.866;2023-10-19T08:17:44;1999.90;;;999.90;;
75898;SDS011;64576;50.460;4.866;2023-10-19T08:20:12;1999.90;;;999.90;;
75898;SDS011;64576;50.460;4.866;2023-10-19T08:22:44;1999.90;;;999.90;;
75898;SDS011;64576;50.460;4.866;2023-10-19T08:25:11;1999.90;;;999.90;;
75898;SDS011;64576;50.460;4.866;2023-10-19T08:27:39;1999.90;;;999.90;;
75898;SDS011;64576;50.460;4.866;2023-10-19T08:30:13;1999.90;;;999.90;;
75898;SDS011;64576;50.460;4.866;2023-10-19T08:32:40;1999.90;;;999.90;;
75898;SDS011;64576;50.460;4.866;2023-10-19T08:35:07;1999.90;;;999.90;;
75898;SDS011;64576;50.460;4.866;2023-10-19T08:37:39;1999.90;;;999.90;;
75898;SDS011;64576;50.460;4.866;2023-10-19T08:40:06;1999.90;;;999.90;;
75898;SDS011;64576;50.460;4.866;2023-10-19T08:42:32;1999.90;;;999.90;;
75898;SDS011;64576;50.460;4.866;2023-10-19T08:44:59;1999.90;;;999.90;;
75898;SDS011;64576;50.460;4.866;2023-10-19T08:47:25;1999.90;;;999.90;;
75898;SDS011;64576;50.460;4.866;2023-10-19T08:49:52;1999.90;;;999.90;;
75898;SDS011;64576;50.460;4.866;2023-10-19T08:52:20;1999.90;;;999.90;;
75898;SDS011;64576;50.460;4.866;2023-10-19T08:54:49;1999.90;;;999.90;;
75898;SDS011;64576;50.460;4.866;2023-10-19T08:57:14;1999.90;;;999.90;;
75898;SDS011;64576;50.460;4.866;2023-10-19T08:59:40;1999.90;;;999.90;;
75898;SDS011;64576;50.460;4.866;2023-10-19T09:02:05;1999.90;;;999.90;;
75898;SDS011;64576;50.460;4.866;2023-10-19T09:04:32;1999.90;;;999.90;;
75898;SDS011;64576;50.460;4.866;2023-10-19T09:06:57;1999.90;;;999.90;;
75898;SDS011;64576;50.460;4.866;2023-10-19T09:09:23;1999.90;;;999.90;;
75898;SDS011;64576;50.460;4.866;2023-10-19T09:11:51;1999.90;;;999.90;;
75898;SDS011;64576;50.460;4.866;2023-10-19T09:14:33;1999.90;;;999.90;;
75898;SDS011;64576;50.460;4.866;2023-10-19T09:17:04;1999.90;;;999.90;;
75898;SDS011;64576;50.460;4.866;2023-10-19T09:19:40;1999.90;;;999.90;;
75898;SDS011;64576;50.460;4.866;2023-10-19T09:22:07;1999.90;;;999.90;;
75898;SDS011;64576;50.460;4.866;2023-10-19T09:24:41;1999.90;;;999.90;;
75898;SDS011;64576;50.460;4.866;2023-10-19T09:27:07;1999.90;;;999.90;;
75898;SDS011;64576;50.460;4.866;2023-10-19T09:29:33;1999.90;;;999.90;;
75898;SDS011;64576;50.460;4.866;2023-10-19T09:31:58;1999.90;;;999.90;;
75898;SDS011;64576;50.460;4.866;2023-10-19T09:34:28;1999.90;;;999.90;;
75898;SDS011;64576;50.460;4.866;2023-10-19T09:36:58;1999.90;;;999.90;;
75898;SDS011;64576;50.460;4.866;2023-10-19T09:39:27;1999.90;;;999.90;;
75898;SDS011;64576;50.460;4.866;2023-10-19T09:41:59;1999.90;;;999.90;;
75898;SDS011;64576;50.460;4.866;2023-10-19T09:44:30;1999.90;;;999.90;;
75898;SDS011;64576;50.460;4.866;2023-10-19T09:47:01;1999.90;;;999.90;;
75898;SDS011;64576;50.460;4.866;2023-10-19T09:49:29;1999.90;;;999.90;;
75898;SDS011;64576;50.460;4.866;2023-10-19T09:51:54;1999.90;;;999.90;;
75898;SDS011;64576;50.460;4.866;2023-10-19T09:54:22;1999.90;;;999.90;;
75898;SDS011;64576;50.460;4.866;2023-10-19T09:56:57;1999.90;;;999.90;;
75898;SDS011;64576;50.460;4.866;2023-10-19T10:04:33;1999.90;;;999.90;;
75898;SDS011;64576;50.460;4.866;2023-10-19T10:07:02;1999.90;;;999.90;;
75898;SDS011;64576;50.460;4.866;2023-10-19T10:09:36;1999.90;;;999.90;;
75898;SDS011;64576;50.460;4.866;2023-10-19T10:12:15;1999.90;;;999.90;;
75898;SDS011;64576;50.460;4.866;2023-10-19T10:15:01;1999.90;;;999.90;;
75898;SDS011;64576;50.460;4.866;2023-10-19T10:17:32;1999.90;;;999.90;;
75898;SDS011;64576;50.460;4.866;2023-10-19T10:22:38;1999.90;;;999.90;;
75898;SDS011;64576;50.460;4.866;2023-10-19T10:25:03;1999.90;;;999.90;;
75898;SDS011;64576;50.460;4.866;2023-10-19T10:27:30;1999.90;;;999.90;;
75898;SDS011;64576;50.460;4.866;2023-10-19T10:29:56;1999.90;;;999.90;;
75898;SDS011;64576;50.460;4.866;2023-10-19T10:38:06;1999.90;;;999.90;;
75898;SDS011;64576;50.460;4.866;2023-10-19T10:40:49;1999.90;;;999.90;;
75898;SDS011;64576;50.460;4.866;2023-10-19T10:43:16;1999.90;;;999.90;;
75898;SDS011;64576;50.460;4.866;2023-10-19T10:45:43;1999.90;;;999.90;;
75898;SDS011;64576;50.460;4.866;2023-10-19T10:48:15;1999.90;;;999.90;;
75898;SDS011;64576;50.460;4.866;2023-10-19T10:50:44;1999.90;;;999.90;;
75898;SDS011;64576;50.460;4.866;2023-10-19T10:53:13;1999.90;;;999.90;;
75898;SDS011;64576;50.460;4.866;2023-10-19T10:55:42;1999.90;;;999.90;;
75898;SDS011;64576;50.460;4.866;2023-10-19T10:58:08;1999.90;;;999.90;;
75898;SDS011;64576;50.460;4.866;2023-10-19T11:00:33;1999.90;;;999.90;;
75898;SDS011;64576;50.460;4.866;2023-10-19T11:05:35;1999.90;;;999.90;;
75898;SDS011;64576;50.460;4.866;2023-10-19T11:10:46;1999.90;;;999.90;;
75898;SDS011;64576;50.460;4.866;2023-10-19T11:13:13;1999.90;;;999.90;;
75898;SDS011;64576;50.460;4.866;2023-10-19T11:15:47;1999.90;;;999.90;;
75898;SDS011;64576;50.460;4.866;2023-10-19T11:18:31;1999.90;;;999.90;;
75898;SDS011;64576;50.460;4.866;2023-10-19T11:20:57;1999.90;;;999.90;;
75898;SDS011;64576;50.460;4.866;2023-10-19T11:23:39;1999.90;;;999.90;;
75898;SDS011;64576;50.460;4.866;2023-10-19T11:26:12;1999.90;;;999.90;;
75898;SDS011;64576;50.460;4.866;2023-10-19T11:28:39;1999.90;;;999.90;;
75898;SDS011;64576;50.460;4.866;2023-10-19T11:31:13;1999.90;;;999.90;;
75898;SDS011;64576;50.460;4.866;2023-10-19T11:34:00;1999.90;;;999.90;;
75898;SDS011;64576;50.460;4.866;2023-10-19T11:36:26;1999.90;;;999.90;;
75898;SDS011;64576;50.460;4.866;2023-10-19T11:38:52;1999.90;;;999.90;;
75898;SDS011;64576;50.460;4.866;2023-10-19T11:41:18;1999.90;;;999.90;;
75898;SDS011;64576;50.460;4.866;2023-10-19T11:43:45;1999.90;;;999.90;;
75898;SDS011;64576;50.460;4.866;2023-10-19T11:46:11;1999.90;;;999.90;;
75898;SDS011;64576;50.460;4.866;2023-10-19T11:48:37;1999.90;;;999.90;;
75898;SDS011;64576;50.460;4.866;2023-10-19T11:51:04;1999.90;;;999.90;;
75898;SDS011;64576;50.460;4.866;2023-10-19T11:53:34;1999.90;;;999.90;;
75898;SDS011;64576;50.460;4.866;2023-10-19T11:56:02;1516.13;;;757.30;;
75898;SDS011;64576;50.460;4.866;2023-10-19T11:58:29;1999.90;;;999.90;;
75898;SDS011;64576;50.460;4.866;2023-10-19T12:00:59;1999.90;;;999.90;;
75898;SDS011;64576;50.460;4.866;2023-10-19T12:03:24;1999.90;;;999.90;;
75898;SDS011;64576;50.460;4.866;2023-10-19T12:05:53;1999.90;;;999.90;;
75898;SDS011;64576;50.460;4.866;2023-10-19T12:08:19;1999.90;;;999.90;;
75898;SDS011;64576;50.460;4.866;2023-10-19T12:10:44;1999.90;;;999.90;;
75898;SDS011;64576;50.460;4.866;2023-10-19T12:13:10;1999.90;;;999.90;;
75898;SDS011;64576;50.460;4.866;2023-10-19T12:15:35;237.05;;;124.43;;
75898;SDS011;64576;50.460;4.866;2023-10-19T12:18:01;1999.90;;;999.90;;
75898;SDS011;64576;50.460;4.866;2023-10-19T12:20:30;1999.90;;;999.90;;
75898;SDS011;64576;50.460;4.866;2023-10-19T12:22:56;1999.90;;;999.90;;
75898;SDS011;64576;50.460;4.866;2023-10-19T12:25:23;1090.00;;;549.67;;
75898;SDS011;64576;50.460;4.866;2023-10-19T12:28:00;1999.90;;;999.90;;
75898;SDS011;64576;50.460;4.866;2023-10-19T12:30:25;1999.90;;;999.90;;
75898;SDS011;64576;50.460;4.866;2023-10-19T12:32:56;1999.90;;;999.90;;
75898;SDS011;64576;50.460;4.866;2023-10-19T12:35:23;1999.90;;;999.90;;
75898;SDS011;64576;50.460;4.866;2023-10-19T12:38:07;1521.13;;;769.17;;
75898;SDS011;64576;50.460;4.866;2023-10-19T12:40:40;1999.90;;;999.90;;
75898;SDS011;64576;50.460;4.866;2023-10-19T12:43:06;1999.90;;;999.90;;
75898;SDS011;64576;50.460;4.866;2023-10-19T12:45:32;1999.90;;;999.90;;
75898;SDS011;64576;50.460;4.866;2023-10-19T12:48:02;1999.90;;;999.90;;
75898;SDS011;64576;50.460;4.866;2023-10-19T12:50:29;815.50;;;552.05;;
75898;SDS011;64576;50.460;4.866;2023-10-19T12:52:55;582.05;;;551.22;;
75898;SDS011;64576;50.460;4.866;2023-10-19T12:55:21;374.30;;;359.67;;
75898;SDS011;64576;50.460;4.866;2023-10-19T12:57:46;289.52;;;275.90;;
75898;SDS011;64576;50.460;4.866;2023-10-19T13:00:12;482.33;;;458.23;;
75898;SDS011;64576;50.460;4.866;2023-10-19T13:03:01;319.40;;;299.38;;
75898;SDS011;64576;50.460;4.866;2023-10-19T13:05:31;1999.90;;;999.90;;
75898;SDS011;64576;50.460;4.866;2023-10-19T13:07:58;1999.90;;;999.90;;
75898;SDS011;64576;50.460;4.866;2023-10-19T13:10:33;1999.90;;;999.90;;
75898;SDS011;64576;50.460;4.866;2023-10-19T13:13:08;1999.90;;;999.90;;
75898;SDS011;64576;50.460;4.866;2023-10-19T13:15:38;1999.90;;;999.90;;
75898;SDS011;64576;50.460;4.866;2023-10-19T13:18:05;1999.90;;;999.90;;
75898;SDS011;64576;50.460;4.866;2023-10-19T13:20:32;131.23;;;120.40;;
75898;SDS011;64576;50.460;4.866;2023-10-19T13:23:02;1999.90;;;999.90;;
75898;SDS011;64576;50.460;4.866;2023-10-19T13:25:40;549.17;;;503.95;;
75898;SDS011;64576;50.460;4.866;2023-10-19T13:28:15;443.90;;;405.02;;
75898;SDS011;64576;50.460;4.866;2023-10-19T13:30:52;1999.90;;;999.90;;
75898;SDS011;64576;50.460;4.866;2023-10-19T13:33:19;536.88;;;466.02;;
75898;SDS011;64576;50.460;4.866;2023-10-19T13:35:46;298.13;;;266.30;;
75898;SDS011;64576;50.460;4.866;2023-10-19T13:38:13;1029.97;;;518.28;;
75898;SDS011;64576;50.460;4.866;2023-10-19T13:40:42;1999.90;;;999.90;;
75898;SDS011;64576;50.460;4.866;2023-10-19T13:43:09;459.23;;;255.45;;
75898;SDS011;64576;50.460;4.866;2023-10-19T13:45:39;1042.88;;;530.20;;
75898;SDS011;64576;50.460;4.866;2023-10-19T13:48:06;1021.22;;;383.15;;
75898;SDS011;64576;50.460;4.866;2023-10-19T13:50:33;1999.90;;;999.90;;
75898;SDS011;64576;50.460;4.866;2023-10-19T13:53:00;1999.90;;;999.90;;
75898;SDS011;64576;50.460;4.866;2023-10-19T13:55:27;1537.85;;;773.47;;
75898;SDS011;64576;50.460;4.866;2023-10-19T13:57:53;1261.03;;;634.00;;
75898;SDS011;64576;50.460;4.866;2023-10-19T14:00:20;559.30;;;479.10;;
75898;SDS011;64576;50.460;4.866;2023-10-19T14:02:55;607.88;;;556.95;;
75898;SDS011;64576;50.460;4.866;2023-10-19T14:05:21;1050.15;;;752.17;;
75898;SDS011;64576;50.460;4.866;2023-10-19T14:07:49;808.75;;;753.28;;
75898;SDS011;64576;50.460;4.866;2023-10-19T14:10:15;808.53;;;720.67;;
75898;SDS011;64576;50.460;4.866;2023-10-19T14:12:41;886.30;;;838.88;;
75898;SDS011;64576;50.460;4.866;2023-10-19T14:15:14;701.83;;;649.80;;
75898;SDS011;64576;50.460;4.866;2023-10-19T14:17:42;1119.68;;;724.92;;
75898;SDS011;64576;50.460;4.866;2023-10-19T14:20:08;726.78;;;626.90;;
75898;SDS011;64576;50.460;4.866;2023-10-19T14:22:48;586.88;;;467.75;;
75898;SDS011;64576;50.460;4.866;2023-10-19T14:25:14;868.88;;;397.55;;
75898;SDS011;64576;50.460;4.866;2023-10-19T14:27:40;1999.90;;;999.90;;